createdAt,value
2023-03-16T00:04:12.175Z,1.02
2023-03-16T00:09:14.997Z,1.06
2023-03-16T00:14:19.077Z,1.10
2023-03-16T00:19:22.861Z,1.12
2023-03-16T00:24:25.694Z,1.09
2023-03-16T00:29:29.795Z,1.00
2023-03-16T00:34:34.608Z,0.95
2023-03-16T00:39:37.346Z,0.98
2023-03-16T00:44:42.397Z,0.88
2023-03-16T00:49:45.557Z,0.91
2023-03-16T00:54:49.062Z,0.90
2023-03-16T00:59:53.618Z,0.90
2023-03-16T01:04:57.037Z,0.87
2023-03-16T01:10:01.656Z,0.87
2023-03-16T01:15:07.228Z,0.74
2023-03-16T01:20:14.386Z,0.73
2023-03-16T01:25:18.319Z,0.72
2023-03-16T01:30:22.483Z,0.61
2023-03-16T01:35:25.592Z,0.61
2023-03-16T01:40:28.846Z,0.65
2023-03-16T01:46:14.195Z,0.64
2023-03-16T01:51:24.220Z,0.56
2023-03-16T01:56:30.849Z,0.51
2023-03-16T02:01:36.089Z,0.41
2023-03-16T02:06:39.515Z,0.36
2023-03-16T02:11:42.920Z,0.21
2023-03-16T02:16:50.665Z,0.19
2023-03-16T02:21:59.666Z,0.21
2023-03-16T02:27:05.535Z,0.06
2023-03-16T02:32:13.943Z,0.06
2023-03-16T02:37:17.049Z,-0.03
2023-03-16T02:42:22.826Z,0.06
2023-03-16T02:47:35.063Z,-0.04
2023-03-16T02:52:39.243Z,0.02
2023-03-16T02:57:42.264Z,-0.11
2023-03-16T03:02:52.464Z,-0.14
2023-03-16T03:07:55.463Z,-0.04
2023-03-16T03:12:58.775Z,-0.03
2023-03-16T03:18:04.027Z,-0.30
2023-03-16T03:23:08.016Z,-0.19
2023-03-16T03:28:11.415Z,-0.17
2023-03-16T03:33:15.738Z,-0.42
2023-03-16T03:38:18.593Z,-0.18
2023-03-16T03:43:22.215Z,-0.17
2023-03-16T03:48:28.534Z,-0.31
2023-03-16T03:53:33.076Z,-0.24
2023-03-16T03:58:56.067Z,-0.30
2023-03-16T04:04:18.873Z,-0.29
2023-03-16T04:09:21.696Z,-0.34
2023-03-16T04:14:24.954Z,-0.42
2023-03-16T04:19:29.382Z,-0.30
2023-03-16T04:24:34.482Z,-0.40
2023-03-16T04:29:38.715Z,-0.36
2023-03-16T04:34:43.751Z,-0.32
2023-03-16T04:39:48.888Z,-0.28
2023-03-16T04:44:51.836Z,-0.29
2023-03-16T04:49:58.668Z,-0.21
2023-03-16T04:55:01.679Z,-0.18
2023-03-16T05:00:11.705Z,-0.11
2023-03-16T05:05:23.124Z,-0.03
2023-03-16T05:10:26.519Z,0.12
2023-03-16T05:15:29.507Z,0.12
2023-03-16T05:20:42.167Z,-0.03
2023-03-16T05:25:47.112Z,0.15
2023-03-16T05:30:53.030Z,0.07
2023-03-16T05:36:03.021Z,0.08
2023-03-16T05:41:06.847Z,-0.05
2023-03-16T05:46:30.156Z,0.12
2023-03-16T05:51:35.379Z,0.27
2023-03-16T05:56:40.914Z,0.29
2023-03-16T06:01:43.802Z,0.28
2023-03-16T06:06:48.942Z,0.44
2023-03-16T06:12:01.440Z,0.65
2023-03-16T06:17:05.548Z,0.52
2023-03-16T06:22:10.968Z,0.42
2023-03-16T06:27:14.949Z,0.73
2023-03-16T06:32:33.614Z,0.86
2023-03-16T06:37:38.059Z,0.90
2023-03-16T06:42:55.142Z,1.02
2023-03-16T06:47:58.075Z,1.11
2023-03-16T06:53:02.656Z,1.30
2023-03-16T06:58:07.948Z,1.58
2023-03-16T07:03:10.980Z,1.72
2023-03-16T07:08:18.176Z,2.12
2023-03-16T07:13:21.188Z,2.24
2023-03-16T07:18:25.963Z,2.58
2023-03-16T07:23:30.820Z,2.76
2023-03-16T07:28:39.462Z,3.19
2023-03-16T07:33:43.133Z,3.61
2023-03-16T07:38:51.688Z,3.94
2023-03-16T07:43:54.875Z,4.15
2023-03-16T07:49:00.273Z,3.83
2023-03-16T07:54:05.148Z,4.10
2023-03-16T07:59:10.656Z,4.12
2023-03-16T08:04:13.561Z,4.05
2023-03-16T08:09:17.866Z,4.15
2023-03-16T08:14:20.851Z,4.60
2023-03-16T08:19:42.664Z,4.70
2023-03-16T08:24:48.997Z,4.81
2023-03-16T08:29:53.869Z,5.10
2023-03-16T08:35:00.470Z,5.16
2023-03-16T08:40:06.391Z,5.29
2023-03-16T08:45:13.778Z,5.38
2023-03-16T08:50:19.617Z,5.46
2023-03-16T08:55:24.475Z,5.86
2023-03-16T09:00:28.733Z,5.76
2023-03-16T09:05:32.646Z,6.12
2023-03-16T09:10:38.031Z,6.62
2023-03-16T09:22:52.044Z,7.06
2023-03-16T09:27:56.185Z,7.59
2023-03-16T09:32:59.477Z,7.69
2023-03-16T09:38:06.874Z,8.38
2023-03-16T09:43:31.379Z,8.29
2023-03-16T09:48:36.800Z,8.72
2023-03-16T09:53:40.573Z,8.43
2023-03-16T09:58:45.689Z,8.91
2023-03-16T10:04:06.504Z,9.51
2023-03-16T10:09:25.242Z,9.17
2023-03-16T10:14:39.008Z,9.01
2023-03-16T10:19:47.986Z,9.36
2023-03-16T10:25:02.404Z,9.13
2023-03-16T10:30:19.659Z,9.17
2023-03-16T10:35:32.443Z,9.48
2023-03-16T10:40:38.450Z,9.55
2023-03-16T10:45:44.257Z,9.11
2023-03-16T10:50:51.917Z,8.78
2023-03-16T10:55:59.805Z,9.21
2023-03-16T11:01:03.931Z,9.34
2023-03-16T11:06:08.911Z,9.16
2023-03-16T11:11:15.633Z,9.66
2023-03-16T11:16:31.964Z,9.77
2023-03-16T11:21:44.766Z,9.22
2023-03-16T11:26:53.082Z,9.41
2023-03-16T11:32:01.015Z,9.64
2023-03-16T11:37:14.064Z,9.34
2023-03-16T11:42:29.799Z,8.96
2023-03-16T11:48:02.335Z,9.20
2023-03-16T11:53:14.366Z,8.53
2023-03-16T11:58:31.574Z,8.70
2023-03-16T12:03:57.026Z,8.60
2023-03-16T12:09:15.441Z,8.48
2023-03-16T12:14:24.302Z,8.40
2023-03-16T12:19:42.516Z,8.82
2023-03-16T12:24:47.029Z,8.58
2023-03-16T12:30:01.724Z,8.92
2023-03-16T12:35:19.463Z,8.85
2023-03-16T12:40:32.793Z,8.75
2023-03-16T12:45:41.897Z,8.97
2023-03-16T12:50:52.051Z,9.55
2023-03-16T12:55:56.524Z,10.04
2023-03-16T13:01:01.007Z,10.44
2023-03-16T13:06:05.624Z,11.38
2023-03-16T13:11:10.346Z,10.86
2023-03-16T13:16:27.120Z,10.32
2023-03-16T13:21:39.435Z,10.32
2023-03-16T13:26:47.372Z,9.76
2023-03-16T13:31:51.162Z,9.55
2023-03-16T13:36:57.980Z,9.57
2023-03-16T13:42:04.689Z,9.33
2023-03-16T13:47:08.516Z,9.55
2023-03-16T13:52:20.784Z,9.50
2023-03-16T13:57:26.885Z,9.39
2023-03-16T14:02:30.132Z,9.48
2023-03-16T14:07:38.734Z,9.67
2023-03-16T14:12:51.702Z,9.56
2023-03-16T14:18:16.370Z,9.26
2023-03-16T14:23:24.475Z,9.85
2023-03-16T14:28:32.367Z,9.75
2023-03-16T14:33:37.693Z,9.70
2023-03-16T14:38:43.679Z,9.53
2023-03-16T14:43:49.244Z,9.70
2023-03-16T14:48:53.404Z,9.19
2023-03-16T14:53:57.554Z,9.09
2023-03-16T14:59:00.540Z,9.36
2023-03-16T15:04:03.740Z,9.31
2023-03-16T15:09:08.737Z,9.40
2023-03-16T15:14:35.406Z,9.39
2023-03-16T15:19:38.121Z,9.94
2023-03-16T15:24:42.588Z,9.60
2023-03-16T15:29:45.353Z,9.31
2023-03-16T15:34:48.126Z,9.01
2023-03-16T15:39:52.346Z,9.07
2023-03-16T15:44:55.289Z,9.33
2023-03-16T15:49:58.064Z,9.68
2023-03-16T15:55:07.678Z,10.17
2023-03-16T16:00:27.177Z,10.21
2023-03-16T16:05:30.996Z,9.71
2023-03-16T16:10:35.682Z,9.56
2023-03-16T16:15:38.456Z,9.77
2023-03-16T16:20:41.282Z,9.35
2023-03-16T16:25:46.491Z,9.23
2023-03-16T16:30:49.894Z,8.87
2023-03-16T16:35:52.932Z,8.56
2023-03-16T16:41:01.345Z,8.46
2023-03-16T16:46:07.531Z,8.49
2023-03-16T16:51:18.151Z,8.43
2023-03-16T16:56:28.604Z,8.10
2023-03-16T17:01:34.536Z,8.22
2023-03-16T17:06:37.764Z,8.11
2023-03-16T17:11:43.386Z,8.09
2023-03-16T17:16:48.441Z,7.81
2023-03-16T17:21:52.184Z,7.71
2023-03-16T17:26:58.741Z,7.71
2023-03-16T17:32:03.571Z,7.46
2023-03-16T17:37:08.477Z,7.35
2023-03-16T17:42:15.858Z,7.20
2023-03-16T17:47:21.367Z,7.08
2023-03-16T17:52:26.853Z,7.22
2023-03-16T17:57:33.220Z,7.04
2023-03-16T18:02:41.130Z,7.08
2023-03-16T18:07:43.912Z,6.96
2023-03-16T18:12:50.642Z,6.94
2023-03-16T18:17:53.802Z,6.95
2023-03-16T18:22:57.107Z,6.88
2023-03-16T18:28:02.621Z,6.83
2023-03-16T18:33:07.766Z,6.73
2023-03-16T18:38:18.959Z,6.76
2023-03-16T18:43:24.521Z,6.79
2023-03-16T18:48:31.583Z,6.75
2023-03-16T18:53:34.373Z,6.70
2023-03-16T18:58:38.481Z,6.58
2023-03-16T19:03:45.023Z,6.94
2023-03-16T19:08:47.804Z,6.98
2023-03-16T19:13:54.666Z,7.08
2023-03-16T19:18:57.574Z,7.16
2023-03-16T19:24:04.121Z,6.99
2023-03-16T19:29:11.293Z,7.13
2023-03-16T19:34:17.635Z,6.82
2023-03-16T19:39:21.295Z,6.98
2023-03-16T19:44:28.277Z,6.88
2023-03-16T19:49:31.698Z,6.92
2023-03-16T19:54:35.049Z,6.93
2023-03-16T19:59:39.389Z,6.79
2023-03-16T20:04:42.289Z,6.83
2023-03-16T20:09:45.276Z,6.77
2023-03-16T20:14:51.203Z,6.85
2023-03-16T20:19:54.102Z,6.81
2023-03-16T20:24:57.967Z,6.68
2023-03-16T20:30:02.818Z,6.61
2023-03-16T20:35:14.594Z,6.78
2023-03-16T20:40:18.584Z,6.60
2023-03-16T20:45:25.739Z,6.82
2023-03-16T20:50:31.103Z,6.75
2023-03-16T20:55:34.141Z,6.63
2023-03-16T21:00:39.928Z,6.84
2023-03-16T21:05:42.705Z,6.81
2023-03-16T21:10:47.808Z,6.80
2023-03-16T21:15:53.022Z,6.80
2023-03-16T21:20:56.867Z,6.73
2023-03-16T21:26:03.689Z,6.64
2023-03-16T21:31:08.401Z,6.62
2023-03-16T21:36:15.769Z,6.70
2023-03-16T21:41:18.671Z,6.58
2023-03-16T21:46:24.624Z,6.68
2023-03-16T21:51:31.492Z,6.50
2023-03-16T21:56:34.288Z,6.52
2023-03-16T22:01:54.406Z,6.49
2023-03-16T22:07:01.372Z,6.55
2023-03-16T22:12:04.722Z,6.48
2023-03-16T22:17:20.160Z,6.72
2023-03-16T22:22:22.924Z,6.71
2023-03-16T22:27:26.306Z,6.68
2023-03-16T22:32:30.519Z,6.75
2023-03-16T22:37:33.829Z,6.58
2023-03-16T22:42:38.944Z,6.50
2023-03-16T22:47:43.106Z,6.34
2023-03-16T22:52:48.377Z,6.36
2023-03-16T22:57:54.688Z,6.21
2023-03-16T23:02:59.223Z,6.27
2023-03-16T23:08:03.489Z,6.31
2023-03-16T23:13:15.285Z,6.21
2023-03-16T23:18:21.957Z,6.22
2023-03-16T23:23:24.888Z,6.30
2023-03-16T23:28:27.780Z,6.16
2023-03-16T23:33:32.019Z,6.26
2023-03-16T23:38:34.807Z,6.30
2023-03-16T23:43:37.656Z,6.29
2023-03-16T23:48:45.867Z,6.36
2023-03-16T23:53:48.827Z,6.25
2023-03-16T23:58:52.054Z,5.94
